createdAt,value
2023-09-23T00:01:12.996Z,1.53
2023-09-23T00:03:41.110Z,1.33
2023-09-23T00:06:10.209Z,1.20
2023-09-23T00:08:38.248Z,1.40
2023-09-23T00:11:06.189Z,1.40
2023-09-23T00:13:34.169Z,1.57
2023-09-23T00:16:04.598Z,2.03
2023-09-23T00:18:33.921Z,1.30
2023-09-23T00:21:03.486Z,1.10
2023-09-23T00:23:32.274Z,1.27
2023-09-23T00:26:00.406Z,1.77
2023-09-23T00:28:31.775Z,1.90
2023-09-23T00:31:10.862Z,2.10
2023-09-23T00:33:40.493Z,1.33
2023-09-23T00:36:10.152Z,1.40
2023-09-23T00:38:38.546Z,1.47
2023-09-23T00:41:08.068Z,1.50
2023-09-23T00:43:36.106Z,1.20
2023-09-23T00:46:06.858Z,1.20
2023-09-23T00:48:39.420Z,1.10
2023-09-23T00:51:10.652Z,0.90
2023-09-23T00:53:41.320Z,1.30
2023-09-23T00:56:10.432Z,1.13
2023-09-23T00:58:38.721Z,1.00
2023-09-23T01:01:07.553Z,1.40
2023-09-23T01:03:38.176Z,1.23
2023-09-23T01:06:10.259Z,1.17
2023-09-23T01:08:39.717Z,1.00
2023-09-23T01:11:10.504Z,1.00
2023-09-23T01:13:39.114Z,1.37
2023-09-23T01:17:02.398Z,1.90
2023-09-23T01:19:30.476Z,1.50
2023-09-23T01:21:58.253Z,1.87
2023-09-23T01:24:31.382Z,1.70
2023-09-23T01:26:59.769Z,1.67
2023-09-23T01:29:28.132Z,1.70
2023-09-23T01:32:20.180Z,1.67
2023-09-23T01:34:48.176Z,1.50
2023-09-23T01:37:15.959Z,1.13
2023-09-23T01:39:45.729Z,0.80
2023-09-23T01:42:13.646Z,1.10
2023-09-23T01:44:42.315Z,1.10
2023-09-23T01:47:10.299Z,1.37
2023-09-23T01:49:39.048Z,0.70
2023-09-23T01:52:07.489Z,0.90
2023-09-23T01:54:35.314Z,0.87
2023-09-23T01:57:05.313Z,0.93
2023-09-23T01:59:33.583Z,0.97
2023-09-23T02:02:05.858Z,1.23
2023-09-23T02:04:34.872Z,1.00
2023-09-23T02:07:02.946Z,1.10
2023-09-23T02:09:31.472Z,1.00
2023-09-23T02:12:00.974Z,1.10
2023-09-23T02:14:30.915Z,1.00
2023-09-23T02:16:59.483Z,1.00
2023-09-23T02:19:28.626Z,0.90
2023-09-23T02:21:56.448Z,1.00
2023-09-23T02:24:24.609Z,1.23
2023-09-23T02:26:52.527Z,1.20
2023-09-23T02:29:22.313Z,1.10
2023-09-23T02:31:52.219Z,1.30
2023-09-23T02:34:21.413Z,1.47
2023-09-23T02:36:51.987Z,1.13
2023-09-23T02:39:21.678Z,1.20
2023-09-23T02:41:50.735Z,1.20
2023-09-23T02:44:20.493Z,1.07
2023-09-23T02:46:48.719Z,0.97
2023-09-23T02:49:18.463Z,1.00
2023-09-23T02:51:46.248Z,1.03
2023-09-23T02:54:16.769Z,1.03
2023-09-23T02:56:45.986Z,0.97
2023-09-23T02:59:15.202Z,1.00
2023-09-23T03:01:46.838Z,1.20
2023-09-23T03:04:18.576Z,1.20
2023-09-23T03:06:50.931Z,1.10
2023-09-23T03:09:24.657Z,1.00
2023-09-23T03:11:57.063Z,1.00
2023-09-23T03:14:29.388Z,1.20
2023-09-23T03:16:58.854Z,1.27
2023-09-23T03:19:27.223Z,1.10
2023-09-23T03:21:57.500Z,1.10
2023-09-23T03:24:27.396Z,1.10
2023-09-23T03:26:56.536Z,1.07
2023-09-23T03:29:24.784Z,1.60
2023-09-23T03:31:52.722Z,0.90
2023-09-23T03:34:22.767Z,0.90
2023-09-23T03:36:53.002Z,1.07
2023-09-23T03:39:23.161Z,1.07
2023-09-23T03:41:50.955Z,0.90
2023-09-23T03:44:19.107Z,1.20
2023-09-23T03:46:49.530Z,1.10
2023-09-23T03:49:19.029Z,1.03
2023-09-23T03:51:46.737Z,1.23
2023-09-23T03:54:14.491Z,0.80
2023-09-23T03:56:43.700Z,1.00
2023-09-23T03:59:11.587Z,1.10
2023-09-23T04:01:39.701Z,1.37
2023-09-23T04:04:08.591Z,1.13
2023-09-23T04:06:36.420Z,1.20
2023-09-23T04:09:11.401Z,1.00
2023-09-23T04:11:39.194Z,1.27
2023-09-23T04:14:08.628Z,0.97
2023-09-23T04:16:36.488Z,1.20
2023-09-23T04:19:04.788Z,1.20
2023-09-23T04:21:32.647Z,1.13
2023-09-23T04:24:01.959Z,1.30
2023-09-23T04:26:29.745Z,1.00
2023-09-23T04:28:57.575Z,1.27
2023-09-23T04:31:26.753Z,1.27
2023-09-23T04:33:54.708Z,1.30
2023-09-23T04:36:23.455Z,1.03
2023-09-23T04:38:51.188Z,1.10
2023-09-23T04:41:19.066Z,1.20
2023-09-23T04:43:47.058Z,1.00
2023-09-23T04:46:16.228Z,1.13
2023-09-23T04:48:45.703Z,1.00
2023-09-23T04:51:13.690Z,1.30
2023-09-23T04:53:41.434Z,1.30
2023-09-23T04:56:11.704Z,1.07
2023-09-23T04:58:39.996Z,1.30
2023-09-23T05:01:07.863Z,1.20
2023-09-23T05:03:37.967Z,1.00
2023-09-23T05:06:09.737Z,1.10
2023-09-23T05:08:37.729Z,1.20
2023-09-23T05:11:07.880Z,1.20
2023-09-23T05:13:38.129Z,1.20
2023-09-23T05:16:06.079Z,1.30
2023-09-23T05:18:34.159Z,1.40
2023-09-23T05:21:02.134Z,1.10
2023-09-23T05:23:31.388Z,1.17
2023-09-23T05:25:59.882Z,1.70
2023-09-23T05:28:29.134Z,1.30
2023-09-23T05:30:56.963Z,1.57
2023-09-23T05:33:25.054Z,1.10
2023-09-23T05:35:53.148Z,1.40
2023-09-23T05:38:21.836Z,1.30
2023-09-23T05:40:55.824Z,1.40
2023-09-23T05:43:23.648Z,1.37
2023-09-23T05:45:51.845Z,1.67
2023-09-23T05:48:19.966Z,1.20
2023-09-23T05:50:49.210Z,1.20
2023-09-23T05:53:17.241Z,1.00
2023-09-23T05:55:45.491Z,1.17
2023-09-23T05:58:14.696Z,1.30
2023-09-23T06:00:42.533Z,1.40
2023-09-23T06:03:10.375Z,1.03
2023-09-23T06:05:38.334Z,1.23
2023-09-23T06:08:07.196Z,1.27
2023-09-23T06:10:35.779Z,1.17
2023-09-23T06:13:05.036Z,1.27
2023-09-23T06:15:35.078Z,1.17
2023-09-23T06:18:03.135Z,1.30
2023-09-23T06:20:31.219Z,1.73
2023-09-23T06:22:59.615Z,1.67
2023-09-23T06:25:27.791Z,1.20
2023-09-23T06:27:56.170Z,1.33
2023-09-23T06:30:24.031Z,1.40
2023-09-23T06:32:53.342Z,2.00
2023-09-23T06:35:21.423Z,1.20
2023-09-23T06:37:49.803Z,2.10
2023-09-23T06:40:18.186Z,1.30
2023-09-23T06:42:47.838Z,1.53
2023-09-23T06:45:15.767Z,1.40
2023-09-23T06:47:43.801Z,1.40
2023-09-23T06:50:13.252Z,1.80
2023-09-23T06:52:41.936Z,3.00
2023-09-23T06:55:10.142Z,1.70
2023-09-23T06:57:37.967Z,1.47
2023-09-23T07:00:08.442Z,1.13
2023-09-23T07:02:37.265Z,1.60
2023-09-23T07:05:06.054Z,1.30
2023-09-23T07:07:35.499Z,1.23
2023-09-23T07:10:05.564Z,1.27
2023-09-23T07:12:33.446Z,1.10
2023-09-23T07:15:01.318Z,1.07
2023-09-23T07:17:29.730Z,1.03
2023-09-23T07:19:57.865Z,1.63
2023-09-23T07:22:26.067Z,1.37
2023-09-23T07:24:55.511Z,1.10
2023-09-23T07:27:25.568Z,1.60
2023-09-23T07:29:53.450Z,1.73
2023-09-23T07:32:21.301Z,1.10
2023-09-23T07:34:49.210Z,1.60
2023-09-23T07:37:17.042Z,1.07
2023-09-23T07:42:20.955Z,1.10
2023-09-23T07:44:48.826Z,1.07
2023-09-23T07:47:16.785Z,1.20
2023-09-23T07:49:44.842Z,1.10
2023-09-23T07:52:12.908Z,1.37
2023-09-23T07:54:40.698Z,1.10
2023-09-23T07:57:08.537Z,1.57
2023-09-23T07:59:37.829Z,0.97
2023-09-23T08:02:05.789Z,0.90
2023-09-23T08:04:33.761Z,1.03
2023-09-23T08:07:01.616Z,1.10
2023-09-23T08:09:29.557Z,1.23
2023-09-23T08:11:57.563Z,1.33
2023-09-23T08:14:25.420Z,1.00
2023-09-23T08:16:54.726Z,1.37
2023-09-23T08:19:24.296Z,1.30
2023-09-23T08:21:52.269Z,1.00
2023-09-23T08:24:20.233Z,1.00
2023-09-23T08:26:48.473Z,1.00
2023-09-23T08:29:16.520Z,1.20
2023-09-23T08:31:44.427Z,1.50
2023-09-23T08:34:13.688Z,0.90
2023-09-23T08:36:41.567Z,1.17
2023-09-23T08:39:11.037Z,0.90
2023-09-23T08:41:39.778Z,0.90
2023-09-23T08:44:08.149Z,1.00
2023-09-23T08:46:36.210Z,1.20
2023-09-23T08:49:05.195Z,1.20
2023-09-23T08:51:35.638Z,1.40
2023-09-23T08:54:07.558Z,1.00
2023-09-23T08:56:35.811Z,1.27
2023-09-23T08:59:04.624Z,0.90
2023-09-23T09:01:42.769Z,1.10
2023-09-23T09:04:10.700Z,1.30
2023-09-23T09:06:50.228Z,1.17
2023-09-23T09:09:18.679Z,1.00
2023-09-23T09:11:48.125Z,1.13
2023-09-23T09:14:16.572Z,1.03
2023-09-23T09:16:44.749Z,1.10
2023-09-23T09:19:12.757Z,0.93
2023-09-23T09:21:40.646Z,1.03
2023-09-23T09:24:11.193Z,1.43
2023-09-23T09:26:39.583Z,1.10
2023-09-23T09:29:07.679Z,1.30
2023-09-23T09:31:37.280Z,1.23
2023-09-23T09:34:07.425Z,1.30
2023-09-23T09:36:39.572Z,1.80
2023-09-23T09:39:09.707Z,1.17
2023-09-23T09:41:47.615Z,1.70
2023-09-23T09:44:16.548Z,0.90
2023-09-23T09:46:44.916Z,1.00
2023-09-23T09:49:12.937Z,1.10
2023-09-23T09:51:43.670Z,1.10
2023-09-23T09:54:13.134Z,1.00
2023-09-23T09:56:42.071Z,1.20
2023-09-23T09:59:10.655Z,1.20
2023-09-23T10:01:38.472Z,1.37
2023-09-23T10:04:13.166Z,1.17
2023-09-23T10:06:43.379Z,1.67
2023-09-23T10:09:19.468Z,1.40
2023-09-23T10:11:57.327Z,1.03
2023-09-23T10:14:25.579Z,0.83
2023-09-23T10:16:54.689Z,1.40
2023-09-23T10:19:32.579Z,1.17
2023-09-23T10:22:18.320Z,1.30
2023-09-23T10:24:48.328Z,1.20
2023-09-23T10:27:25.289Z,1.03
2023-09-23T10:29:53.111Z,1.37
2023-09-23T10:32:21.235Z,1.30
2023-09-23T10:34:50.101Z,1.40
2023-09-23T10:37:32.004Z,1.50
2023-09-23T10:40:10.461Z,1.50
2023-09-23T10:42:39.022Z,1.27
2023-09-23T10:45:08.123Z,1.27
2023-09-23T10:47:36.818Z,1.20
2023-09-23T10:50:06.186Z,1.30
2023-09-23T10:52:34.419Z,1.20
2023-09-23T10:55:02.420Z,1.50
2023-09-23T10:57:31.754Z,1.20
2023-09-23T11:00:00.728Z,1.30
2023-09-23T11:02:28.672Z,1.20
2023-09-23T11:04:57.062Z,1.17
2023-09-23T11:07:26.848Z,1.33
2023-09-23T11:09:56.108Z,1.33
2023-09-23T11:12:28.842Z,1.30
2023-09-23T11:15:00.128Z,1.77
2023-09-23T11:17:31.587Z,1.50
2023-09-23T11:20:02.106Z,1.40
2023-09-23T11:22:31.570Z,1.30
2023-09-23T11:25:00.295Z,1.20
2023-09-23T11:27:28.602Z,1.00
2023-09-23T11:29:58.630Z,1.33
2023-09-23T11:32:27.593Z,1.40
2023-09-23T11:34:56.647Z,1.77
2023-09-23T11:37:24.656Z,1.60
2023-09-23T11:39:52.959Z,1.30
2023-09-23T11:42:21.968Z,1.40
2023-09-23T11:44:49.862Z,1.57
2023-09-23T11:47:22.277Z,1.50
2023-09-23T11:49:50.739Z,1.67
2023-09-23T11:52:18.598Z,1.87
2023-09-23T11:54:46.874Z,1.37
2023-09-23T11:57:15.132Z,1.63
2023-09-23T11:59:43.514Z,1.50
2023-09-23T12:02:12.250Z,1.37
2023-09-23T12:04:41.743Z,1.30
2023-09-23T12:07:09.703Z,1.33
2023-09-23T12:09:38.383Z,2.00
2023-09-23T12:12:07.135Z,1.23
2023-09-23T12:14:35.064Z,1.30
2023-09-23T12:17:04.470Z,1.30
2023-09-23T12:19:32.266Z,1.30
2023-09-23T12:22:01.542Z,1.30
2023-09-23T12:24:29.742Z,1.50
2023-09-23T12:26:57.561Z,1.60
2023-09-23T12:29:27.738Z,1.40
2023-09-23T12:31:55.658Z,1.43
2023-09-23T12:34:23.640Z,1.20
2023-09-23T12:36:52.118Z,1.30
2023-09-23T12:39:24.008Z,1.10
2023-09-23T12:41:52.326Z,1.43
2023-09-23T12:44:22.109Z,1.63
2023-09-23T12:46:50.076Z,1.00
2023-09-23T12:49:17.885Z,1.07
2023-09-23T12:51:45.670Z,1.70
2023-09-23T12:54:13.874Z,1.70
2023-09-23T12:56:43.060Z,1.00
2023-09-23T12:59:10.982Z,1.37
2023-09-23T13:01:39.110Z,1.57
2023-09-23T13:04:07.321Z,1.30
2023-09-23T13:06:35.250Z,1.63
2023-09-23T13:09:04.435Z,1.57
2023-09-23T13:11:32.324Z,1.20
2023-09-23T13:14:01.744Z,1.30
2023-09-23T13:16:29.587Z,1.50
2023-09-23T13:18:57.768Z,1.33
2023-09-23T13:21:25.621Z,1.40
2023-09-23T13:23:53.426Z,1.20
2023-09-23T13:26:21.565Z,1.30
2023-09-23T13:28:49.617Z,1.37
2023-09-23T13:31:19.525Z,1.47
2023-09-23T13:33:48.114Z,1.40
2023-09-23T13:36:16.178Z,1.60
2023-09-23T13:38:45.193Z,1.30
2023-09-23T13:41:13.322Z,1.40
2023-09-23T13:43:41.433Z,1.23
2023-09-23T13:46:09.802Z,1.30
2023-09-23T13:48:39.414Z,1.40
2023-09-23T13:51:08.375Z,0.80
2023-09-23T13:53:36.406Z,1.40
2023-09-23T13:56:04.428Z,1.10
2023-09-23T13:58:32.224Z,1.10
2023-09-23T14:01:00.485Z,1.57
2023-09-23T14:03:28.329Z,1.27
2023-09-23T14:05:57.734Z,1.30
2023-09-23T14:08:27.150Z,1.40
2023-09-23T14:10:56.162Z,0.90
2023-09-23T14:13:29.212Z,1.33
2023-09-23T14:15:57.214Z,1.10
2023-09-23T14:18:25.146Z,1.37
2023-09-23T14:20:53.381Z,1.10
2023-09-23T14:23:22.689Z,1.33
2023-09-23T14:25:50.727Z,1.10
2023-09-23T14:28:18.657Z,1.40
2023-09-23T14:30:46.875Z,1.10
2023-09-23T14:33:14.886Z,1.30
2023-09-23T14:35:42.980Z,1.40
2023-09-23T14:38:11.491Z,1.00
2023-09-23T14:40:40.835Z,1.00
2023-09-23T14:43:08.601Z,1.60
2023-09-23T14:45:36.472Z,1.20
2023-09-23T14:48:04.491Z,1.73
2023-09-23T14:50:32.561Z,1.23
2023-09-23T14:53:00.459Z,1.20
2023-09-23T14:55:28.330Z,1.30
2023-09-23T14:57:57.467Z,2.33
2023-09-23T15:00:25.397Z,1.30
2023-09-23T15:02:53.734Z,1.80
2023-09-23T15:05:22.532Z,1.50
2023-09-23T15:07:50.351Z,1.30
2023-09-23T15:10:20.274Z,1.43
2023-09-23T15:12:48.699Z,1.40
2023-09-23T15:15:18.194Z,1.23
2023-09-23T15:17:46.008Z,1.60
2023-09-23T15:20:14.831Z,1.60
2023-09-23T15:22:42.973Z,1.20
2023-09-23T15:25:12.443Z,1.40
2023-09-23T15:27:40.365Z,1.73
2023-09-23T15:30:10.273Z,1.50
2023-09-23T15:32:40.323Z,1.90
2023-09-23T15:35:09.741Z,1.40
2023-09-23T15:37:37.672Z,1.93
2023-09-23T15:40:07.914Z,1.60
2023-09-23T15:42:35.834Z,1.90
2023-09-23T15:45:03.675Z,1.50
2023-09-23T15:47:31.746Z,1.53
2023-09-23T15:50:01.043Z,1.60
2023-09-23T15:52:28.941Z,1.60
2023-09-23T15:54:59.297Z,1.90
2023-09-23T15:57:27.406Z,1.60
2023-09-23T15:59:55.267Z,1.60
2023-09-23T16:02:23.157Z,1.33
2023-09-23T16:04:51.094Z,1.50
2023-09-23T16:07:20.839Z,1.30
2023-09-23T16:09:48.702Z,1.40
2023-09-23T16:12:16.726Z,1.30
2023-09-23T16:14:44.652Z,1.70
2023-09-23T16:17:12.623Z,1.53
2023-09-23T16:19:40.726Z,1.70
2023-09-23T16:22:09.206Z,1.77
2023-09-23T16:24:38.518Z,1.23
2023-09-23T16:27:06.302Z,1.70
2023-09-23T16:29:34.375Z,1.30
2023-09-23T16:32:02.923Z,1.90
2023-09-23T16:34:31.423Z,1.47
2023-09-23T16:36:59.277Z,1.90
2023-09-23T16:39:26.894Z,1.50
2023-09-23T16:41:56.294Z,1.30
2023-09-23T16:44:24.624Z,1.17
2023-09-23T16:46:54.929Z,1.60
2023-09-23T16:49:22.821Z,1.27
2023-09-23T16:51:50.626Z,1.50
2023-09-23T16:54:18.383Z,1.23
2023-09-23T16:56:46.327Z,1.43
2023-09-23T16:59:16.236Z,1.87
2023-09-23T17:01:44.370Z,1.73
2023-09-23T17:04:13.307Z,1.30
2023-09-23T17:06:41.106Z,2.40
2023-09-23T17:09:09.119Z,1.40
2023-09-23T17:11:37.116Z,1.97
2023-09-23T17:14:05.330Z,1.70
2023-09-23T17:16:35.143Z,2.00
2023-09-23T17:19:03.807Z,2.00
2023-09-23T17:21:31.623Z,1.77
2023-09-23T17:23:59.475Z,1.97
2023-09-23T17:26:27.422Z,2.10
2023-09-23T17:29:00.549Z,1.77
2023-09-23T17:31:29.425Z,2.20
2023-09-23T17:33:59.047Z,2.13
2023-09-23T17:36:27.389Z,2.30
2023-09-23T17:38:55.581Z,1.60
2023-09-23T17:41:24.264Z,2.50
2023-09-23T17:43:52.444Z,1.83
2023-09-23T17:46:20.891Z,1.90
2023-09-23T17:48:50.172Z,2.00
2023-09-23T17:51:22.348Z,2.13
2023-09-23T17:53:57.607Z,1.70
2023-09-23T17:56:28.460Z,1.73
2023-09-23T17:58:56.775Z,1.90
2023-09-23T18:01:25.734Z,1.90
2023-09-23T18:03:54.081Z,3.20
2023-09-23T18:06:23.618Z,2.87
2023-09-23T18:08:51.498Z,1.90
2023-09-23T18:11:19.590Z,2.07
2023-09-23T18:13:48.161Z,2.20
2023-09-23T18:16:16.533Z,1.93
2023-09-23T18:18:47.343Z,3.20
2023-09-23T18:21:17.291Z,2.87
2023-09-23T18:23:47.110Z,3.10
2023-09-23T18:26:15.977Z,2.33
2023-09-23T18:28:45.308Z,2.00
2023-09-23T18:31:13.290Z,2.27
2023-09-23T18:33:42.384Z,2.17
2023-09-23T18:36:11.896Z,3.00
2023-09-23T18:38:39.990Z,2.77
2023-09-23T18:41:09.229Z,3.07
2023-09-23T18:43:37.259Z,2.47
2023-09-23T18:46:05.934Z,2.37
2023-09-23T18:48:34.142Z,2.77
2023-09-23T18:51:02.552Z,2.53
2023-09-23T18:53:31.205Z,2.20
2023-09-23T18:56:00.975Z,2.13
2023-09-23T18:58:30.256Z,1.80
2023-09-23T19:00:58.644Z,2.20
2023-09-23T19:03:26.865Z,1.83
2023-09-23T19:05:55.225Z,2.43
2023-09-23T19:08:23.407Z,2.37
2023-09-23T19:10:51.445Z,2.13
2023-09-23T19:13:19.645Z,2.00
2023-09-23T19:15:50.864Z,1.90
2023-09-23T19:18:19.605Z,2.30
2023-09-23T19:20:48.310Z,3.60
2023-09-23T19:23:16.404Z,4.03
2023-09-23T19:25:44.310Z,3.70
2023-09-23T19:28:12.080Z,3.40
2023-09-23T19:30:40.117Z,3.17
2023-09-23T19:33:09.379Z,2.83
2023-09-23T19:35:38.156Z,2.07
2023-09-23T19:38:08.045Z,2.30
2023-09-23T19:40:39.148Z,2.30
2023-09-23T19:43:07.405Z,2.57
2023-09-23T19:45:35.613Z,2.50
2023-09-23T19:48:03.592Z,2.90
2023-09-23T19:50:33.779Z,2.90
2023-09-23T19:53:01.938Z,2.70
2023-09-23T19:55:30.159Z,2.77
2023-09-23T19:57:58.119Z,2.63
2023-09-23T20:00:29.244Z,2.47
2023-09-23T20:02:57.438Z,2.90
2023-09-23T20:05:25.641Z,3.20
2023-09-23T20:07:54.885Z,3.27
2023-09-23T20:10:22.937Z,2.40
2023-09-23T20:12:51.174Z,2.33
2023-09-23T20:15:19.247Z,3.00
2023-09-23T20:17:48.651Z,2.97
2023-09-23T20:20:16.893Z,2.33
2023-09-23T20:22:44.814Z,3.00
2023-09-23T20:25:15.726Z,2.70
2023-09-23T20:27:44.364Z,2.97
2023-09-23T20:30:14.097Z,2.77
2023-09-23T20:32:43.893Z,2.50
2023-09-23T20:35:12.928Z,2.20
2023-09-23T20:37:41.866Z,2.63
2023-09-23T20:40:13.029Z,2.10
2023-09-23T20:42:43.073Z,2.63
2023-09-23T20:45:12.033Z,2.60
2023-09-23T20:47:41.159Z,2.50
2023-09-23T20:50:11.102Z,2.33
2023-09-23T20:52:39.622Z,2.73
2023-09-23T20:55:09.205Z,2.30
2023-09-23T20:57:37.117Z,2.53
2023-09-23T21:00:11.294Z,2.30
2023-09-23T21:02:39.439Z,2.03
2023-09-23T21:05:08.265Z,2.50
2023-09-23T21:07:36.312Z,2.13
2023-09-23T21:10:04.574Z,2.30
2023-09-23T21:12:32.960Z,2.53
2023-09-23T21:15:00.756Z,2.27
2023-09-23T21:17:30.055Z,2.20
2023-09-23T21:19:58.148Z,2.30
2023-09-23T21:22:26.126Z,3.80
2023-09-23T21:24:54.312Z,3.13
2023-09-23T21:27:22.096Z,2.77
2023-09-23T21:29:50.062Z,2.90
2023-09-23T21:32:18.064Z,2.80
2023-09-23T21:34:47.232Z,2.13
2023-09-23T21:37:15.135Z,3.53
2023-09-23T21:39:43.290Z,2.93
2023-09-23T21:42:11.496Z,2.30
2023-09-23T21:44:40.448Z,2.30
2023-09-23T21:47:09.898Z,3.30
2023-09-23T21:49:37.695Z,2.47
2023-09-23T21:52:07.024Z,2.07
2023-09-23T21:54:35.032Z,1.70
2023-09-23T21:57:02.873Z,2.23
2023-09-23T21:59:30.713Z,2.00
2023-09-23T22:01:59.703Z,2.03
2023-09-23T22:04:28.324Z,2.10
2023-09-23T22:06:56.598Z,2.03
2023-09-23T22:09:26.443Z,2.50
2023-09-23T22:11:54.461Z,1.80
2023-09-23T22:14:22.305Z,2.27
2023-09-23T22:16:52.656Z,2.00
2023-09-23T22:19:20.549Z,1.83
2023-09-23T22:21:48.420Z,1.90
2023-09-23T22:24:17.339Z,1.80
2023-09-23T22:26:47.180Z,1.90
2023-09-23T22:29:15.401Z,2.60
2023-09-23T22:31:43.270Z,1.90
2023-09-23T22:34:11.281Z,1.90
2023-09-23T22:36:39.740Z,1.60
2023-09-23T22:39:10.397Z,1.80
2023-09-23T22:41:38.488Z,1.67
2023-09-23T22:44:08.132Z,2.00
2023-09-23T22:46:36.806Z,1.70
2023-09-23T22:49:06.625Z,2.00
2023-09-23T22:51:34.595Z,1.90
2023-09-23T22:54:02.979Z,1.70
2023-09-23T22:56:34.931Z,2.43
2023-09-23T22:59:03.269Z,2.03
2023-09-23T23:01:32.866Z,1.73
2023-09-23T23:04:01.442Z,2.20
2023-09-23T23:06:30.014Z,1.97
2023-09-23T23:08:58.084Z,2.10
2023-09-23T23:11:26.315Z,1.90
2023-09-23T23:13:56.968Z,2.20
2023-09-23T23:16:25.123Z,2.10
2023-09-23T23:18:54.910Z,2.20
2023-09-23T23:21:22.865Z,2.03
2023-09-23T23:23:51.410Z,2.33
2023-09-23T23:26:23.280Z,2.40
2023-09-23T23:28:57.445Z,2.20
2023-09-23T23:31:29.190Z,1.90
2023-09-23T23:33:58.602Z,2.93
2023-09-23T23:36:27.383Z,2.27
2023-09-23T23:38:55.368Z,2.00
2023-09-23T23:41:24.413Z,2.90
2023-09-23T23:43:52.450Z,2.00
2023-09-23T23:46:20.735Z,2.07
2023-09-23T23:48:49.156Z,2.50
2023-09-23T23:51:18.403Z,2.30
2023-09-23T23:53:46.615Z,1.60
2023-09-23T23:56:16.570Z,1.97
2023-09-23T23:58:44.513Z,2.40
